createdAt,value
2017-12-02T00:01:30.528Z,41.85
2017-12-02T00:03:58.831Z,41.95
2017-12-02T00:06:27.513Z,41.85
2017-12-02T00:08:57.212Z,43.00
2017-12-02T00:11:26.521Z,48.92
2017-12-02T00:13:54.841Z,39.63
2017-12-02T00:16:23.930Z,44.25
2017-12-02T00:18:52.217Z,45.35
2017-12-02T00:21:21.387Z,44.33
2017-12-02T00:23:50.621Z,41.22
2017-12-02T00:26:18.914Z,46.47
2017-12-02T00:28:47.199Z,40.47
2017-12-02T00:31:15.535Z,46.80
2017-12-02T00:33:43.814Z,47.85
2017-12-02T00:36:12.104Z,47.90
2017-12-02T00:38:41.575Z,45.05
2017-12-02T00:41:09.865Z,48.10
2017-12-02T00:43:38.550Z,46.33
2017-12-02T00:46:08.397Z,45.42
2017-12-02T00:48:37.450Z,43.05
2017-12-02T00:51:05.743Z,43.10
2017-12-02T00:53:34.076Z,44.67
2017-12-02T00:56:03.418Z,43.15
2017-12-02T00:58:32.479Z,45.42
2017-12-02T01:01:02.715Z,44.63
2017-12-02T01:03:33.893Z,47.83
2017-12-02T01:06:02.542Z,51.88
2017-12-02T01:08:30.837Z,45.70
2017-12-02T01:10:59.150Z,47.13
2017-12-02T01:13:27.495Z,50.88
2017-12-02T01:15:55.796Z,48.33
2017-12-02T01:18:24.858Z,43.05
2017-12-02T01:20:53.586Z,44.47
2017-12-02T01:23:21.938Z,45.80
2017-12-02T01:25:50.991Z,42.22
2017-12-02T01:28:19.706Z,46.67
2017-12-02T01:30:47.999Z,45.63
2017-12-02T01:33:16.306Z,46.63
2017-12-02T01:35:44.789Z,43.95
2017-12-02T01:38:13.855Z,48.60
2017-12-02T01:40:42.155Z,46.92
2017-12-02T01:43:10.526Z,51.78
2017-12-02T01:45:38.827Z,52.67
2017-12-02T01:48:07.126Z,50.65
2017-12-02T01:50:35.459Z,45.63
2017-12-02T01:53:04.513Z,50.50
2017-12-02T01:55:32.814Z,51.67
2017-12-02T01:58:01.324Z,55.38
2017-12-02T02:00:29.619Z,59.45
2017-12-02T02:02:57.931Z,58.20
2017-12-02T02:05:26.286Z,57.17
2017-12-02T02:07:54.582Z,57.10
2017-12-02T02:10:24.382Z,56.33
2017-12-02T02:12:53.854Z,56.80
2017-12-02T02:15:23.282Z,62.58
2017-12-02T02:17:51.580Z,59.22
2017-12-02T02:20:19.923Z,55.78
2017-12-02T02:22:48.226Z,53.03
2017-12-02T02:25:16.519Z,53.47
2017-12-02T02:27:44.867Z,52.33
2017-12-02T02:30:13.157Z,54.40
2017-12-02T02:32:42.229Z,55.25
2017-12-02T02:35:10.587Z,53.72
2017-12-02T02:37:39.658Z,54.92
2017-12-02T02:40:09.098Z,56.78
2017-12-02T02:42:37.470Z,57.45
2017-12-02T02:45:05.768Z,58.30
2017-12-02T02:47:34.823Z,54.63
2017-12-02T02:50:04.318Z,60.20
2017-12-02T02:52:33.383Z,54.10
2017-12-02T02:55:03.041Z,58.08
2017-12-02T02:57:31.250Z,58.80
2017-12-02T02:59:59.549Z,57.22
2017-12-02T03:02:29.200Z,55.10
2017-12-02T03:04:57.418Z,59.28
2017-12-02T03:07:25.713Z,53.83
2017-12-02T03:09:54.018Z,51.15
2017-12-02T03:12:22.375Z,51.72
2017-12-02T03:14:50.666Z,48.22
2017-12-02T03:17:18.955Z,51.65
2017-12-02T03:19:47.315Z,50.90
2017-12-02T03:22:15.605Z,49.75
2017-12-02T03:24:43.906Z,44.75
2017-12-02T03:27:12.250Z,47.33
2017-12-02T03:29:40.551Z,44.67
2017-12-02T03:32:08.848Z,49.10
2017-12-02T03:34:37.182Z,47.75
2017-12-02T03:37:05.469Z,53.78
2017-12-02T03:39:33.762Z,46.37
2017-12-02T03:42:03.014Z,47.03
2017-12-02T03:44:31.318Z,44.22
2017-12-02T03:46:59.994Z,43.00
2017-12-02T03:49:28.335Z,44.78
2017-12-02T03:51:56.636Z,44.97
2017-12-02T03:54:24.931Z,44.70
2017-12-02T03:56:54.771Z,40.78
2017-12-02T03:59:23.058Z,39.97
2017-12-02T04:01:51.357Z,43.10
2017-12-02T04:04:19.702Z,39.50
2017-12-02T04:06:48.386Z,40.85
2017-12-02T04:09:16.691Z,41.47
2017-12-02T04:11:45.055Z,40.38
2017-12-02T04:14:13.346Z,42.67
2017-12-02T04:16:41.632Z,38.42
2017-12-02T04:19:11.103Z,41.22
2017-12-02T04:21:39.402Z,41.35
2017-12-02T04:24:07.697Z,40.58
2017-12-02T04:26:36.052Z,35.70
2017-12-02T04:29:05.478Z,36.58
2017-12-02T04:31:33.784Z,40.90
2017-12-02T04:34:02.134Z,41.20
2017-12-02T04:36:31.931Z,39.42
2017-12-02T04:39:01.367Z,42.38
2017-12-02T04:41:30.473Z,41.28
2017-12-02T04:43:58.768Z,42.00
2017-12-02T04:46:27.089Z,38.83
2017-12-02T04:48:56.200Z,37.33
2017-12-02T04:51:24.495Z,40.78
2017-12-02T04:53:52.795Z,41.03
2017-12-02T04:56:21.139Z,37.97
2017-12-02T04:58:49.827Z,37.97
2017-12-02T05:01:18.923Z,39.75
2017-12-02T05:03:47.637Z,41.50
2017-12-02T05:06:15.930Z,41.75
2017-12-02T05:08:44.986Z,43.50
2017-12-02T05:11:14.102Z,41.13
2017-12-02T05:13:43.542Z,41.22
2017-12-02T05:16:13.199Z,35.92
2017-12-02T05:18:41.954Z,38.70
2017-12-02T05:21:10.254Z,36.65
2017-12-02T05:23:38.545Z,39.83
2017-12-02T05:26:06.930Z,39.70
2017-12-02T05:28:35.223Z,35.97
2017-12-02T05:31:03.525Z,32.60
2017-12-02T05:33:33.377Z,36.20
2017-12-02T05:36:02.430Z,38.17
2017-12-02T05:38:30.718Z,40.47
2017-12-02T05:40:59.050Z,42.13
2017-12-02T05:43:28.113Z,36.38
2017-12-02T05:45:57.009Z,40.90
2017-12-02T05:48:25.374Z,37.45
2017-12-02T05:50:53.657Z,37.20
2017-12-02T05:53:21.941Z,40.10
2017-12-02T05:55:51.454Z,35.45
2017-12-02T05:58:19.725Z,37.63
2017-12-02T06:00:48.026Z,38.03
2017-12-02T06:03:16.510Z,35.08
2017-12-02T06:05:44.812Z,34.10
2017-12-02T06:08:13.874Z,36.08
2017-12-02T06:10:42.996Z,32.67
2017-12-02T06:13:12.046Z,32.35
2017-12-02T06:15:41.098Z,34.88
2017-12-02T06:18:09.439Z,32.90
2017-12-02T06:20:38.503Z,37.55
2017-12-02T06:23:06.805Z,38.58
2017-12-02T06:25:35.134Z,34.42
2017-12-02T06:28:03.428Z,35.53
2017-12-02T06:30:31.725Z,35.40
2017-12-02T06:33:00.087Z,32.75
2017-12-02T06:35:28.374Z,32.95
2017-12-02T06:37:57.101Z,31.42
2017-12-02T06:40:25.462Z,37.17
2017-12-02T06:42:53.750Z,35.55
2017-12-02T06:45:22.030Z,36.88
2017-12-02T06:47:50.368Z,36.45
2017-12-02T06:50:18.667Z,35.47
2017-12-02T06:52:47.341Z,34.33
2017-12-02T06:55:15.703Z,32.42
2017-12-02T06:57:45.128Z,39.28
2017-12-02T07:00:14.196Z,32.55
2017-12-02T07:02:43.889Z,36.13
2017-12-02T07:05:12.574Z,36.58
2017-12-02T07:07:40.861Z,37.45
2017-12-02T07:10:09.214Z,34.90
2017-12-02T07:12:38.635Z,32.67
2017-12-02T07:15:07.698Z,36.15
2017-12-02T07:17:36.037Z,33.92
2017-12-02T07:20:04.373Z,35.45
2017-12-02T07:22:33.440Z,40.67
2017-12-02T07:25:02.534Z,39.50
2017-12-02T07:27:30.821Z,39.72
2017-12-02T07:29:59.106Z,37.97
2017-12-02T07:32:28.807Z,37.05
2017-12-02T07:34:56.970Z,37.22
2017-12-02T07:37:25.271Z,39.40
2017-12-02T07:39:54.018Z,38.60
2017-12-02T07:42:22.309Z,39.00
2017-12-02T07:44:50.606Z,39.53
2017-12-02T07:47:19.092Z,34.45
2017-12-02T07:49:47.384Z,38.60
2017-12-02T07:52:15.667Z,37.15
2017-12-02T07:54:44.778Z,38.63
2017-12-02T07:57:13.065Z,39.92
2017-12-02T07:59:41.366Z,41.60
2017-12-02T08:02:09.724Z,36.85
2017-12-02T08:04:38.006Z,37.30
2017-12-02T08:07:07.665Z,39.78
2017-12-02T08:09:36.642Z,39.55
2017-12-02T08:12:05.705Z,36.97
2017-12-02T08:14:33.984Z,37.88
2017-12-02T08:17:03.688Z,45.72
2017-12-02T08:19:31.866Z,40.12
2017-12-02T08:22:00.151Z,40.58
2017-12-02T08:24:29.241Z,41.55
2017-12-02T08:26:57.918Z,39.45
2017-12-02T08:29:26.209Z,39.13
2017-12-02T08:31:54.550Z,38.10
2017-12-02T08:34:24.345Z,45.80
2017-12-02T08:36:52.635Z,44.03
2017-12-02T08:39:20.966Z,45.17
2017-12-02T08:41:49.254Z,45.75
2017-12-02T08:44:19.063Z,48.95
2017-12-02T08:46:47.553Z,50.60
2017-12-02T08:49:15.846Z,48.25
2017-12-02T08:51:44.194Z,40.40
2017-12-02T08:54:12.530Z,40.42
2017-12-02T08:56:41.582Z,41.85
2017-12-02T08:59:10.262Z,42.53
2017-12-02T09:01:40.189Z,40.88
2017-12-02T09:04:08.353Z,40.90
2017-12-02T09:06:37.782Z,40.55
2017-12-02T09:09:06.109Z,41.65
2017-12-02T09:11:34.402Z,39.50
2017-12-02T09:14:02.692Z,40.05
2017-12-02T09:16:32.857Z,40.47
2017-12-02T09:19:01.148Z,39.00
2017-12-02T09:21:29.453Z,42.62
2017-12-02T09:23:57.782Z,39.70
2017-12-02T09:26:27.203Z,43.67
2017-12-02T09:28:55.566Z,42.47
2017-12-02T09:31:25.565Z,42.90
2017-12-02T09:33:53.859Z,45.55
2017-12-02T09:36:22.143Z,42.55
2017-12-02T09:38:50.486Z,40.43
2017-12-02T09:41:20.422Z,45.33
2017-12-02T09:43:48.703Z,43.33
2017-12-02T09:46:17.810Z,40.70
2017-12-02T09:48:46.097Z,42.97
2017-12-02T09:51:14.378Z,41.83
2017-12-02T09:53:43.871Z,45.40
2017-12-02T09:56:12.167Z,44.17
2017-12-02T09:58:40.465Z,40.20
2017-12-02T10:01:08.821Z,42.10
2017-12-02T10:03:37.134Z,42.47
2017-12-02T10:06:05.419Z,56.13
2017-12-02T10:08:34.886Z,40.70
2017-12-02T10:11:04.534Z,41.30
2017-12-02T10:13:33.822Z,43.40
2017-12-02T10:16:03.867Z,51.90
2017-12-02T10:18:34.091Z,37.88
2017-12-02T10:21:02.371Z,39.92
2017-12-02T10:23:31.706Z,39.75
2017-12-02T10:26:00.390Z,39.00
2017-12-02T10:28:28.692Z,40.05
2017-12-02T10:30:57.789Z,38.10
2017-12-02T10:33:26.086Z,48.13
2017-12-02T10:35:54.374Z,42.70
2017-12-02T10:38:23.502Z,42.30
2017-12-02T10:40:52.259Z,41.53
2017-12-02T10:43:20.575Z,38.03
2017-12-02T10:45:48.942Z,44.30
2017-12-02T10:48:17.243Z,44.13
2017-12-02T10:50:45.545Z,45.95
2017-12-02T10:53:14.035Z,42.95
2017-12-02T10:55:42.317Z,42.25
2017-12-02T10:58:11.362Z,42.22
2017-12-02T11:00:39.695Z,47.08
2017-12-02T11:03:07.983Z,42.22
2017-12-02T11:05:36.279Z,43.28
2017-12-02T11:08:05.394Z,46.72
2017-12-02T11:10:33.689Z,42.08
2017-12-02T11:13:01.982Z,44.97
2017-12-02T11:15:31.079Z,43.38
2017-12-02T11:17:59.769Z,39.33
2017-12-02T11:20:28.058Z,45.17
2017-12-02T11:22:56.390Z,43.75
2017-12-02T11:25:24.674Z,45.10
2017-12-02T11:27:52.962Z,44.83
2017-12-02T11:30:21.513Z,43.13
2017-12-02T11:32:50.602Z,45.83
2017-12-02T11:35:18.967Z,42.95
2017-12-02T11:37:47.530Z,48.92
2017-12-02T11:40:16.615Z,45.08
2017-12-02T11:42:44.906Z,58.90
2017-12-02T11:45:13.993Z,66.53
2017-12-02T11:47:42.291Z,56.80
2017-12-02T11:50:11.341Z,51.83
2017-12-02T11:52:39.683Z,44.53
2017-12-02T11:55:07.971Z,46.25
2017-12-02T11:57:36.278Z,46.05
2017-12-02T12:00:05.006Z,48.42
2017-12-02T12:02:33.702Z,48.30
2017-12-02T12:05:02.011Z,45.95
2017-12-02T12:07:30.907Z,49.08
2017-12-02T12:09:59.194Z,46.40
2017-12-02T12:12:28.251Z,52.40
2017-12-02T12:14:56.580Z,43.65
2017-12-02T12:17:25.638Z,43.20
2017-12-02T12:19:55.065Z,37.67
2017-12-02T12:22:23.402Z,40.12
2017-12-02T12:24:51.727Z,39.42
2017-12-02T12:27:19.997Z,41.70
2017-12-02T12:29:49.693Z,40.85
2017-12-02T12:32:18.246Z,37.75
2017-12-02T12:34:47.677Z,39.08
2017-12-02T12:37:16.022Z,39.30
2017-12-02T12:39:44.314Z,39.60
2017-12-02T12:42:13.370Z,38.53
2017-12-02T12:44:41.710Z,39.70
2017-12-02T12:47:10.003Z,34.92
2017-12-02T12:49:38.295Z,35.22
2017-12-02T12:52:06.626Z,38.83
2017-12-02T12:54:34.918Z,38.85
2017-12-02T12:57:03.246Z,36.58
2017-12-02T12:59:32.968Z,35.63
2017-12-02T13:02:01.170Z,32.92
2017-12-02T13:04:29.466Z,34.35
2017-12-02T13:06:57.833Z,37.95
2017-12-02T13:09:26.134Z,36.70
2017-12-02T13:11:54.455Z,37.55
2017-12-02T13:14:23.940Z,42.08
2017-12-02T13:16:52.622Z,38.20
2017-12-02T13:19:21.314Z,38.38
2017-12-02T13:21:49.703Z,38.97
2017-12-02T13:24:17.993Z,39.20
2017-12-02T13:26:46.282Z,40.20
2017-12-02T13:29:15.834Z,41.37
2017-12-02T13:31:44.121Z,35.22
2017-12-02T13:34:12.414Z,35.08
2017-12-02T13:36:40.755Z,37.88
2017-12-02T13:39:09.045Z,38.67
2017-12-02T13:41:37.341Z,37.97
2017-12-02T13:44:07.178Z,39.60
2017-12-02T13:46:35.469Z,39.13
2017-12-02T13:49:04.518Z,33.78
2017-12-02T13:51:32.858Z,34.40
2017-12-02T13:54:01.919Z,30.90
2017-12-02T13:56:30.980Z,29.98
2017-12-02T13:58:59.351Z,29.98
2017-12-02T14:01:28.805Z,28.83
2017-12-02T14:03:57.086Z,34.88
2017-12-02T14:06:33.146Z,34.20
2017-12-02T14:09:01.426Z,32.15
2017-12-02T14:11:30.477Z,31.30
2017-12-02T14:13:58.812Z,33.25
2017-12-02T14:16:28.249Z,32.42
2017-12-02T14:18:56.574Z,35.65
2017-12-02T14:21:25.732Z,33.85
2017-12-02T14:24:06.807Z,34.45
2017-12-02T14:26:36.571Z,32.92
2017-12-02T14:29:04.744Z,41.97
2017-12-02T14:31:33.835Z,36.85
2017-12-02T14:34:02.578Z,41.30
2017-12-02T14:36:32.220Z,41.47
2017-12-02T14:39:00.796Z,43.80
2017-12-02T14:41:29.129Z,41.22
2017-12-02T14:43:57.412Z,36.70
2017-12-02T14:46:27.203Z,36.15
2017-12-02T14:48:55.544Z,38.75
2017-12-02T14:51:23.835Z,37.88
2017-12-02T14:53:52.122Z,35.20
2017-12-02T14:56:20.474Z,41.40
2017-12-02T14:58:48.770Z,35.97
2017-12-02T15:01:17.862Z,44.85
2017-12-02T15:03:46.337Z,35.10
2017-12-02T15:06:15.981Z,38.72
2017-12-02T15:08:44.916Z,37.55
2017-12-02T15:11:13.246Z,39.75
2017-12-02T15:13:42.301Z,38.33
2017-12-02T15:16:11.929Z,45.08
2017-12-02T15:18:40.183Z,43.50
2017-12-02T15:21:08.501Z,46.60
2017-12-02T15:23:37.610Z,38.53
2017-12-02T15:26:07.480Z,44.53
2017-12-02T15:28:35.782Z,40.50
2017-12-02T15:31:04.092Z,42.28
2017-12-02T15:33:32.438Z,38.85
2017-12-02T15:36:01.519Z,42.72
2017-12-02T15:38:30.615Z,39.83
2017-12-02T15:41:00.103Z,39.38
2017-12-02T15:43:28.409Z,38.15
2017-12-02T15:45:56.699Z,38.45
2017-12-02T15:48:26.395Z,38.95
2017-12-02T15:50:54.949Z,35.90
2017-12-02T15:53:23.239Z,34.50
2017-12-02T15:55:52.347Z,37.97
2017-12-02T15:58:20.634Z,36.50
2017-12-02T16:00:49.690Z,35.53
2017-12-02T16:03:18.064Z,36.22
2017-12-02T16:05:46.409Z,37.33
2017-12-02T16:08:14.711Z,38.97
2017-12-02T16:10:43.434Z,38.00
2017-12-02T16:13:11.731Z,38.70
2017-12-02T16:15:40.042Z,38.90
2017-12-02T16:18:09.519Z,41.58
2017-12-02T16:20:37.799Z,35.60
2017-12-02T16:23:06.083Z,36.85
2017-12-02T16:25:35.775Z,34.97
2017-12-02T16:28:04.119Z,38.95
2017-12-02T16:30:32.437Z,39.55
2017-12-02T16:33:01.930Z,42.92
2017-12-02T16:35:31.726Z,36.30
2017-12-02T16:38:00.016Z,39.03
2017-12-02T16:40:28.516Z,35.55
2017-12-02T16:42:57.561Z,31.85
2017-12-02T16:45:26.622Z,30.20
2017-12-02T16:47:54.991Z,30.60
2017-12-02T16:50:23.311Z,30.52
2017-12-02T16:52:51.624Z,30.40
2017-12-02T16:55:19.995Z,29.37
2017-12-02T16:57:49.046Z,28.58
2017-12-02T17:00:17.386Z,29.60
2017-12-02T17:02:46.486Z,28.95
2017-12-02T17:05:15.911Z,30.02
2017-12-02T17:07:44.196Z,27.80
2017-12-02T17:10:12.809Z,25.62
2017-12-02T17:12:42.445Z,30.52
2017-12-02T17:15:10.631Z,29.87
2017-12-02T17:17:39.002Z,30.50
2017-12-02T17:20:07.362Z,31.67
2017-12-02T17:22:37.082Z,30.42
2017-12-02T17:25:05.429Z,30.35
2017-12-02T17:27:34.515Z,31.20
2017-12-02T17:30:02.797Z,27.25
2017-12-02T17:32:31.122Z,26.33
2017-12-02T17:34:59.414Z,28.20
2017-12-02T17:37:28.824Z,28.50
2017-12-02T17:39:57.157Z,29.08
2017-12-02T17:42:25.462Z,32.42
2017-12-02T17:44:54.084Z,30.10
2017-12-02T17:47:22.452Z,29.70
2017-12-02T17:49:50.755Z,28.80
2017-12-02T17:52:19.090Z,29.92
2017-12-02T17:54:47.971Z,29.27
2017-12-02T17:57:16.719Z,27.95
2017-12-02T17:59:45.027Z,28.02
2017-12-02T18:02:14.122Z,28.92
2017-12-02T18:04:42.422Z,34.63
2017-12-02T18:07:10.714Z,34.45
2017-12-02T18:09:40.462Z,31.02
2017-12-02T18:12:10.257Z,33.83
2017-12-02T18:14:38.557Z,31.02
2017-12-02T18:17:06.886Z,29.75
2017-12-02T18:19:35.175Z,30.67
2017-12-02T18:22:04.954Z,33.63
2017-12-02T18:24:33.437Z,32.92
2017-12-02T18:27:01.718Z,33.63
2017-12-02T18:29:29.997Z,34.30
2017-12-02T18:31:59.097Z,37.60
2017-12-02T18:34:27.398Z,32.35
2017-12-02T18:36:57.036Z,33.33
2017-12-02T18:39:25.666Z,33.08
2017-12-02T18:41:54.713Z,34.80
2017-12-02T18:44:23.970Z,37.08
2017-12-02T18:46:53.818Z,34.15
2017-12-02T18:49:24.179Z,35.55
2017-12-02T18:51:52.367Z,33.13
2017-12-02T18:54:22.513Z,32.95
2017-12-02T18:56:50.822Z,34.38
2017-12-02T18:59:20.621Z,32.63
2017-12-02T19:01:52.256Z,34.88
2017-12-02T19:04:22.428Z,33.55
2017-12-02T19:06:52.121Z,34.33
2017-12-02T19:09:20.370Z,34.00
2017-12-02T19:11:49.674Z,31.98
2017-12-02T19:14:18.297Z,33.92
2017-12-02T19:16:52.094Z,35.92
2017-12-02T19:19:21.354Z,37.45
2017-12-02T19:21:49.645Z,36.67
2017-12-02T19:24:18.758Z,37.08
2017-12-02T19:26:48.575Z,36.22
2017-12-02T19:29:16.946Z,33.90
2017-12-02T19:31:46.114Z,35.95
2017-12-02T19:34:14.482Z,34.97
2017-12-02T19:36:42.790Z,40.28
2017-12-02T19:39:11.180Z,34.70
2017-12-02T19:41:39.450Z,33.28
2017-12-02T19:44:08.545Z,30.02
2017-12-02T19:46:37.103Z,31.83
2017-12-02T19:49:05.439Z,32.45
2017-12-02T19:51:33.786Z,32.60
2017-12-02T19:54:02.934Z,31.05
2017-12-02T19:56:31.233Z,27.20
2017-12-02T19:59:00.323Z,28.42
2017-12-02T20:01:29.394Z,31.58
2017-12-02T20:03:57.689Z,28.92
2017-12-02T20:06:27.397Z,31.62
2017-12-02T20:08:56.883Z,33.13
2017-12-02T20:11:25.157Z,31.35
2017-12-02T20:13:53.459Z,32.42
2017-12-02T20:16:21.848Z,34.25
2017-12-02T20:18:50.159Z,32.53
2017-12-02T20:21:18.679Z,33.55
2017-12-02T20:23:48.337Z,34.72
2017-12-02T20:26:16.739Z,34.67
2017-12-02T20:28:45.131Z,33.78
2017-12-02T20:31:13.520Z,33.72
2017-12-02T20:33:41.840Z,34.08
2017-12-02T20:36:10.150Z,32.03
2017-12-02T20:38:38.910Z,34.42
2017-12-02T20:41:07.984Z,34.05
2017-12-02T20:43:36.308Z,31.77
2017-12-02T20:46:04.666Z,33.63
2017-12-02T20:48:33.033Z,35.78
2017-12-02T20:51:01.415Z,33.45
2017-12-02T20:53:29.774Z,38.25
2017-12-02T20:55:58.091Z,37.67
2017-12-02T20:58:27.549Z,34.35
2017-12-02T21:00:56.035Z,37.50
2017-12-02T21:03:24.360Z,37.03
2017-12-02T21:05:53.050Z,36.10
2017-12-02T21:08:23.344Z,37.92
2017-12-02T21:10:52.446Z,36.28
2017-12-02T21:13:20.783Z,38.45
2017-12-02T21:15:49.977Z,31.50
2017-12-02T21:18:18.683Z,38.17
2017-12-02T21:20:46.969Z,36.22
2017-12-02T21:23:16.010Z,35.88
2017-12-02T21:25:45.721Z,38.15
2017-12-02T21:28:13.900Z,38.40
2017-12-02T21:30:42.398Z,38.88
2017-12-02T21:33:10.711Z,37.80
2017-12-02T21:35:40.159Z,37.72
2017-12-02T21:38:08.494Z,42.70
2017-12-02T21:40:36.881Z,40.45
2017-12-02T21:43:05.202Z,37.97
2017-12-02T21:45:33.955Z,41.17
2017-12-02T21:48:02.250Z,37.42
2017-12-02T21:50:30.558Z,38.50
2017-12-02T21:52:58.905Z,37.00
2017-12-02T21:55:27.193Z,35.08
2017-12-02T21:57:55.495Z,37.30
2017-12-02T22:00:23.878Z,37.42
2017-12-02T22:02:52.171Z,34.45
2017-12-02T22:05:20.465Z,35.00
2017-12-02T22:07:48.825Z,34.00
2017-12-02T22:10:17.162Z,31.73
2017-12-02T22:12:45.478Z,32.50
2017-12-02T22:15:13.822Z,31.73
2017-12-02T22:17:42.138Z,39.15
2017-12-02T22:20:10.459Z,30.88
2017-12-02T22:22:39.587Z,35.20
2017-12-02T22:25:09.575Z,32.22
2017-12-02T22:27:37.890Z,31.60
2017-12-02T22:30:06.247Z,37.70
2017-12-02T22:32:35.325Z,31.80
2017-12-02T22:35:04.018Z,32.67
2017-12-02T22:37:32.402Z,33.30
2017-12-02T22:40:00.706Z,32.08
2017-12-02T22:42:29.051Z,34.47
2017-12-02T22:44:57.418Z,33.38
2017-12-02T22:47:26.871Z,32.30
2017-12-02T22:49:55.197Z,34.55
2017-12-02T22:52:23.573Z,32.08
2017-12-02T22:54:51.891Z,33.20
2017-12-02T22:57:20.192Z,34.83
2017-12-02T22:59:48.555Z,30.77
2017-12-02T23:02:16.841Z,32.88
2017-12-02T23:04:45.542Z,31.35
2017-12-02T23:07:14.931Z,32.33
2017-12-02T23:09:43.634Z,30.33
2017-12-02T23:12:11.931Z,31.62
2017-12-02T23:14:40.267Z,33.53
2017-12-02T23:17:08.570Z,31.12
2017-12-02T23:19:36.863Z,31.42
2017-12-02T23:22:07.613Z,33.28
2017-12-02T23:24:36.317Z,30.98
2017-12-02T23:27:04.607Z,31.12
2017-12-02T23:29:32.942Z,30.85
2017-12-02T23:32:01.236Z,30.42
2017-12-02T23:34:29.909Z,29.55
2017-12-02T23:36:59.037Z,29.85
2017-12-02T23:39:27.366Z,28.77
2017-12-02T23:41:55.686Z,28.17
2017-12-02T23:44:24.017Z,27.00
2017-12-02T23:46:52.309Z,29.35
2017-12-02T23:49:21.365Z,27.95
2017-12-02T23:51:49.730Z,26.70
2017-12-02T23:54:19.397Z,27.00
2017-12-02T23:56:47.977Z,28.58
2017-12-02T23:59:17.086Z,26.75
